Time;durP1;ratioP1;P1;durP2;ratioP2;P2;SDS_P1;SDS_P2;PMS_P1;PMS_P2;Temp;Humidity;BMP_temperature;BMP_pressure;BME280_temperature;BME280_humidity;BME280_pressure;Samples;Min_cycle;Max_cycle;Signal;HPM_P1;HPM_P2
2022/08/03 00:01:44;;;;;;;0.95;0.75;;;28.40;54.50;;;;;;10911727;32;20050;-69
2022/08/03 00:07:46;;;;;;;2.10;0.90;;;28.60;54.60;;;;;;10911656;32;20011;-69
2022/08/03 00:13:48;;;;;;;1.85;1.23;;;28.60;54.70;;;;;;10911497;32;20062;-69
2022/08/03 00:19:50;;;;;;;1.30;0.88;;;28.60;54.80;;;;;;10911191;32;20050;-69
2022/08/03 00:25:52;;;;;;;1.42;0.80;;;28.50;55.00;;;;;;10911183;32;20028;-70
2022/08/03 00:31:54;;;;;;;1.00;0.90;;;28.40;55.20;;;;;;10910577;32;20041;-71
2022/08/03 00:37:56;;;;;;;1.08;0.85;;;28.40;55.30;;;;;;10897234;32;20023;-69
2022/08/03 00:43:58;;;;;;;0.98;0.75;;;28.30;55.20;;;;;;10910294;32;20050;-69
2022/08/03 00:50:00;;;;;;;1.70;0.73;;;28.30;55.20;;;;;;10909957;32;20089;-70
2022/08/03 00:56:02;;;;;;;1.08;0.70;;;28.20;55.40;;;;;;10896580;32;20023;-71
2022/08/03 01:02:04;;;;;;;1.85;1.00;;;28.10;55.50;;;;;;10909769;32;20046;-72
2022/08/03 01:08:36;;;;;;;0.77;0.65;;;28.10;55.50;;;;;;10908622;32;20031;-71
2022/08/03 01:15:03;;;;;;;0.93;0.68;;;28.00;55.50;;;;;;10909317;32;20046;-71
2022/08/03 01:21:11;;;;;;;2.00;0.67;;;27.90;55.70;;;;;;10904778;32;20019;-71
2022/08/03 01:27:31;;;;;;;1.50;0.93;;;27.70;55.90;;;;;;10908792;32;20016;-71
2022/08/03 01:33:40;;;;;;;0.80;0.80;;;27.70;55.90;;;;;;10908758;32;20031;-71
2022/08/03 01:39:44;;;;;;;1.20;0.90;;;27.70;55.90;;;;;;10908397;32;20050;-71
2022/08/03 01:45:47;;;;;;;1.12;0.65;;;27.70;55.90;;;;;;10908142;32;20023;-69
2022/08/03 01:51:50;;;;;;;1.17;0.93;;;27.60;56.00;;;;;;10907932;32;20301;-71
2022/08/03 01:57:54;;;;;;;0.98;0.88;;;27.60;56.00;;;;;;10907652;32;20058;-71
2022/08/03 02:03:59;;;;;;;1.55;1.00;;;27.70;56.20;;;;;;10907588;32;20027;-69
2022/08/03 02:10:05;;;;;;;2.70;1.55;;;27.70;56.20;;;;;;10907360;32;20477;-71
2022/08/03 02:16:09;;;;;;;2.42;1.20;;;27.70;56.10;;;;;;10907057;32;20313;-71
2022/08/03 02:22:13;;;;;;;0.65;0.60;;;27.80;56.10;;;;;;10906734;32;20073;-68
2022/08/03 02:28:18;;;;;;;0.57;0.52;;;27.70;56.00;;;;;;10906455;32;20031;-68
2022/08/03 02:34:22;;;;;;;1.17;0.95;;;27.70;56.00;;;;;;10906529;32;20042;-70
2022/08/03 02:40:27;;;;;;;2.03;1.17;;;27.60;56.10;;;;;;10906266;32;20046;-71
2022/08/03 02:46:35;;;;;;;1.35;0.70;;;27.60;56.20;;;;;;10905951;32;20053;-71
2022/08/03 02:52:54;;;;;;;1.10;0.90;;;27.60;56.30;;;;;;10905707;32;20015;-71
2022/08/03 02:59:31;;;;;;;1.05;0.90;;;27.50;56.40;;;;;;10718474;33;20021;-71
2022/08/03 03:05:35;;;;;;;2.17;0.90;;;27.30;56.50;;;;;;10717124;33;20060;-71
2022/08/03 03:11:39;;;;;;;0.98;0.80;;;27.30;56.50;;;;;;10716973;33;20304;-71
2022/08/03 03:17:43;;;;;;;1.52;0.80;;;27.30;56.50;;;;;;10717885;33;20063;-71
2022/08/03 03:23:45;;;;;;;3.10;1.08;;;27.30;56.60;;;;;;10705696;33;20033;-71
2022/08/03 03:29:48;;;;;;;0.98;0.62;;;27.30;56.60;;;;;;10716610;33;20033;-71
2022/08/03 03:35:51;;;;;;;1.48;0.98;;;27.10;56.70;;;;;;10851714;32;20059;-71
2022/08/03 03:41:53;;;;;;;2.30;1.50;;;27.20;56.80;;;;;;10903592;32;20038;-71
2022/08/03 03:47:55;;;;;;;1.92;0.85;;;27.10;56.80;;;;;;10904338;32;20039;-71
2022/08/03 03:54:12;;;;;;;0.80;0.80;;;27.20;56.70;;;;;;10904280;32;20388;-71
2022/08/03 04:00:20;;;;;;;2.72;0.80;;;27.00;56.80;;;;;;10904136;32;20031;-71
2022/08/03 04:13:05;;;;;;;2.25;1.23;;;26.80;57.10;;;;;;10904019;32;20058;-71
2022/08/03 04:19:12;;;;;;;1.58;1.20;;;26.80;57.10;;;;;;10903732;32;20024;-71
2022/08/03 04:25:18;;;;;;;3.80;1.37;;;26.70;57.20;;;;;;10904011;32;20046;-71
2022/08/03 04:31:22;;;;;;;1.52;1.10;;;26.60;57.30;;;;;;10906324;27;20027;-71
2022/08/03 04:37:50;;;;;;;1.62;1.00;;;26.60;57.40;;;;;;10901087;32;20098;-71
2022/08/03 04:43:59;;;;;;;0.90;0.73;;;26.60;57.30;;;;;;10906854;32;20069;-71
2022/08/03 04:50:02;;;;;;;0.90;0.88;;;26.60;57.30;;;;;;10910081;32;20169;-71
2022/08/03 04:56:05;;;;;;;1.27;0.75;;;26.60;57.30;;;;;;10909947;32;20027;-72
2022/08/03 05:02:07;;;;;;;1.90;1.20;;;26.70;57.30;;;;;;10909949;32;20015;-72
2022/08/03 05:08:09;;;;;;;2.03;1.60;;;26.80;57.10;;;;;;10909577;32;20050;-72
2022/08/03 05:14:11;;;;;;;1.80;0.90;;;26.80;57.10;;;;;;10909440;32;20062;-72
2022/08/03 05:20:13;;;;;;;2.87;1.23;;;26.80;57.10;;;;;;10904604;32;20070;-73
2022/08/03 05:26:30;;;;;;;2.15;1.12;;;26.80;57.10;;;;;;10871950;32;20058;-73
2022/08/03 05:32:32;;;;;;;1.10;0.80;;;26.70;57.00;;;;;;10871326;32;20024;-73
2022/08/03 05:38:35;;;;;;;2.55;1.05;;;26.70;57.00;;;;;;10871367;32;20012;-73
2022/08/03 05:44:37;;;;;;;1.15;0.85;;;26.80;56.90;;;;;;10871034;32;20403;-73
2022/08/03 05:50:39;;;;;;;1.17;0.80;;;26.90;56.70;;;;;;10870803;32;20046;-73
2022/08/03 05:56:41;;;;;;;0.60;0.60;;;27.00;56.60;;;;;;10870291;32;20051;-73
2022/08/03 06:02:43;;;;;;;1.67;0.95;;;27.10;56.50;;;;;;10866646;32;20054;-73
2022/08/03 06:08:47;;;;;;;1.55;0.68;;;27.20;56.40;;;;;;10870080;32;20344;-73
2022/08/03 06:14:49;;;;;;;2.08;0.50;;;27.40;56.30;;;;;;10869979;32;20031;-72
2022/08/03 06:20:52;;;;;;;1.50;0.93;;;27.60;56.10;;;;;;10869694;32;20085;-72
2022/08/03 06:26:54;;;;;;;1.60;0.93;;;27.80;55.90;;;;;;10869695;32;20039;-73
2022/08/03 06:32:56;;;;;;;1.45;1.10;;;28.00;55.80;;;;;;10869319;32;20102;-72
2022/08/03 06:38:58;;;;;;;0.70;0.70;;;28.10;55.60;;;;;;10869037;32;20317;-73
2022/08/03 06:45:00;;;;;;;1.75;0.85;;;28.30;55.50;;;;;;10868886;32;20356;-72
2022/08/03 06:51:02;;;;;;;0.82;0.77;;;28.30;55.60;;;;;;10868677;32;20031;-72
2022/08/03 06:57:04;;;;;;;1.48;1.00;;;28.40;55.40;;;;;;10868601;32;20050;-72
2022/08/03 07:03:07;;;;;;;2.47;1.10;;;28.60;55.30;;;;;;10868266;32;20015;-73
2022/08/03 07:09:09;;;;;;;1.77;1.10;;;28.80;55.00;;;;;;10867483;32;20031;-71
2022/08/03 07:15:11;;;;;;;0.93;0.70;;;28.80;54.80;;;;;;10867954;32;20074;-71
2022/08/03 07:21:15;;;;;;;2.22;1.10;;;28.90;54.50;;;;;;10854451;32;20339;-72
2022/08/03 07:27:17;;;;;;;4.18;1.50;;;29.10;54.20;;;;;;10867688;32;20020;-72
2022/08/03 07:33:19;;;;;;;1.20;0.93;;;29.10;53.80;;;;;;10867418;32;20023;-72
2022/08/03 07:39:22;;;;;;;1.98;1.23;;;29.30;53.60;;;;;;10867398;32;20439;-71
2022/08/03 07:45:25;;;;;;;1.85;0.82;;;29.40;53.30;;;;;;10867137;32;20028;-72
2022/08/03 07:51:27;;;;;;;1.23;1.00;;;29.50;53.00;;;;;;10866869;32;20036;-72
2022/08/03 07:57:29;;;;;;;1.17;0.98;;;29.60;52.90;;;;;;10866869;32;20020;-72
2022/08/03 08:03:31;;;;;;;1.10;0.88;;;29.70;52.60;;;;;;10866910;32;20023;-72
2022/08/03 08:09:33;;;;;;;1.23;0.95;;;29.80;52.20;;;;;;10866717;32;20031;-71
2022/08/03 08:15:35;;;;;;;2.28;1.20;;;29.80;52.00;;;;;;10867406;32;20062;-72
2022/08/03 08:21:37;;;;;;;2.20;1.20;;;29.90;51.90;;;;;;10873964;32;20023;-72
2022/08/03 08:28:25;;;;;;;1.42;0.85;;;30.00;51.60;;;;;;10873647;32;20479;-72
2022/08/03 08:34:27;;;;;;;1.25;1.10;;;30.10;51.50;;;;;;10873494;32;20032;-72
2022/08/03 08:40:29;;;;;;;1.30;1.08;;;30.20;51.20;;;;;;10872505;32;20062;-71
2022/08/03 08:46:32;;;;;;;1.20;0.70;;;30.30;51.00;;;;;;10873075;32;20380;-72
2022/08/03 08:52:35;;;;;;;3.12;1.15;;;30.30;51.20;;;;;;10872840;32;20396;-71
2022/08/03 08:58:43;;;;;;;1.23;1.08;;;30.40;50.60;;;;;;10872548;32;20031;-72
2022/08/03 09:04:47;;;;;;;2.12;1.70;;;30.60;50.50;;;;;;10872409;32;20114;-72
2022/08/03 09:10:49;;;;;;;1.85;1.12;;;30.60;50.50;;;;;;10872091;32;20050;-72
2022/08/03 09:17:05;;;;;;;0.80;0.73;;;30.70;49.90;;;;;;10871661;32;20039;-72
2022/08/03 09:23:09;;;;;;;1.35;1.00;;;30.80;49.40;;;;;;10871596;32;20392;-72
2022/08/03 09:29:12;;;;;;;3.28;1.60;;;31.00;49.20;;;;;;10870781;32;20056;-72
2022/08/03 09:35:14;;;;;;;3.33;1.12;;;31.20;48.70;;;;;;10871177;32;20055;-71
2022/08/03 09:41:19;;;;;;;1.35;1.17;;;31.30;48.30;;;;;;10871126;32;20054;-72
2022/08/03 09:47:37;;;;;;;4.55;1.50;;;31.40;47.80;;;;;;10871063;32;20042;-72
2022/08/03 09:53:46;;;;;;;1.58;1.10;;;31.60;47.40;;;;;;10870573;32;20329;-72
2022/08/03 09:59:50;;;;;;;2.78;1.52;;;31.70;47.40;;;;;;10870431;32;20008;-72
2022/08/03 10:05:52;;;;;;;2.80;1.15;;;31.80;46.90;;;;;;10870295;32;20423;-71
2022/08/03 10:11:55;;;;;;;0.93;0.80;;;31.90;46.60;;;;;;10869940;32;20069;-71
2022/08/03 10:17:57;;;;;;;1.65;0.93;;;32.10;47.20;;;;;;10869808;32;20036;-72
2022/08/03 10:24:03;;;;;;;1.85;1.25;;;32.20;46.80;;;;;;10869609;32;20321;-72
2022/08/03 10:30:11;;;;;;;1.05;0.80;;;32.30;46.30;;;;;;10869093;32;20031;-72
2022/08/03 10:36:15;;;;;;;2.60;1.42;;;32.40;45.90;;;;;;10866855;32;20024;-72
2022/08/03 10:42:21;;;;;;;1.98;1.20;;;32.60;45.50;;;;;;10868915;32;20043;-72
2022/08/03 10:48:25;;;;;;;1.25;1.15;;;32.80;44.80;;;;;;10868351;32;20054;-71
2022/08/03 10:54:36;;;;;;;1.35;1.00;;;33.00;44.20;;;;;;10868679;32;20020;-72
2022/08/03 11:00:49;;;;;;;2.83;1.20;;;33.30;44.00;;;;;;10868343;32;20024;-72
2022/08/03 11:07:17;;;;;;;1.75;1.10;;;33.30;43.10;;;;;;10868246;32;20050;-72
2022/08/03 11:20:57;;;;;;;1.50;1.00;;;33.90;42.80;;;;;;10868514;32;20411;-71
2022/08/03 11:27:21;;;;;;;1.50;1.08;;;34.30;42.10;;;;;;10634114;32;12091610;-73
2022/08/03 11:33:31;;;;;;;2.67;1.10;;;34.50;41.40;;;;;;10790412;33;20098;-72
2022/08/03 11:39:43;;;;;;;1.20;0.90;;;34.60;41.20;;;;;;10787520;33;20355;-72
2022/08/03 11:45:57;;;;;;;1.65;0.93;;;34.70;41.20;;;;;;10778344;33;20032;-72
2022/08/03 11:51:59;;;;;;;1.52;1.02;;;34.90;40.60;;;;;;10794477;33;20074;-72
2022/08/03 11:58:01;;;;;;;1.70;1.10;;;35.00;40.30;;;;;;10869657;32;20049;-72
2022/08/03 12:04:04;;;;;;;1.30;0.70;;;35.20;40.00;;;;;;10879140;32;20051;-71
2022/08/03 12:10:14;;;;;;;1.62;0.98;;;35.30;39.70;;;;;;10879051;32;20035;-71
2022/08/03 12:16:21;;;;;;;1.42;1.33;;;35.40;39.20;;;;;;10873878;32;20028;-72
2022/08/03 12:22:33;;;;;;;8.80;2.17;;;35.50;38.80;;;;;;10874705;32;20066;-72
2022/08/03 12:28:36;;;;;;;4.35;1.70;;;35.50;38.90;;;;;;10891756;27;20035;-73
2022/08/03 12:34:46;;;;;;;1.23;0.93;;;35.40;38.70;;;;;;10916211;32;20024;-72
2022/08/03 12:41:05;;;;;;;1.62;1.02;;;35.20;38.70;;;;;;10916158;32;20426;-72
2022/08/03 12:47:09;;;;;;;2.17;1.83;;;35.20;39.10;;;;;;10915640;32;20045;-71
2022/08/03 12:53:11;;;;;;;1.75;1.25;;;35.30;39.80;;;;;;10914353;32;20083;-71
2022/08/03 12:59:30;;;;;;;3.17;1.83;;;35.30;40.40;;;;;;10915801;32;20043;-71
2022/08/03 13:05:51;;;;;;;1.58;1.25;;;35.20;40.40;;;;;;10910218;32;20042;-71
2022/08/03 13:12:08;;;;;;;1.75;1.40;;;35.30;40.80;;;;;;10909507;32;20081;-70
2022/08/03 13:18:10;;;;;;;;;;;35.30;40.90;;;;;;10909739;32;20423;-72
2022/08/03 13:24:12;;;;;;;2.00;1.20;;;35.30;40.70;;;;;;10909258;32;19923;-72
2022/08/03 13:30:15;;;;;;;4.25;1.30;;;35.10;41.30;;;;;;10908750;32;20383;-70
2022/08/03 13:36:17;;;;;;;3.60;1.15;;;35.10;40.90;;;;;;10908551;32;20027;-72
2022/08/03 13:42:19;;;;;;;1.75;1.23;;;35.20;40.70;;;;;;10908392;32;20031;-71
2022/08/03 13:48:21;;;;;;;1.77;1.08;;;35.10;40.90;;;;;;10907840;32;20106;-72
2022/08/03 13:54:24;;;;;;;1.75;1.48;;;35.10;40.30;;;;;;10907609;32;20089;-72
2022/08/03 14:00:28;;;;;;;2.33;1.40;;;35.00;40.20;;;;;;10907622;32;20298;-72
2022/08/03 14:06:30;;;;;;;1.33;0.85;;;35.00;40.30;;;;;;10907546;32;20031;-71
2022/08/03 14:12:55;;;;;;;7.20;1.25;;;35.10;39.80;;;;;;10907313;32;20015;-72
2022/08/03 14:18:58;;;;;;;1.90;1.23;;;35.20;39.10;;;;;;10893171;32;20046;-72
2022/08/03 14:25:01;;;;;;;0.73;0.55;;;35.10;38.80;;;;;;10906619;32;20426;-71
2022/08/03 14:31:03;;;;;;;1.33;0.80;;;35.10;37.80;;;;;;10906198;32;20484;-71
2022/08/03 14:37:06;;;;;;;0.85;0.65;;;35.10;37.70;;;;;;10906062;32;20020;-72
2022/08/03 14:43:08;;;;;;;0.82;0.68;;;35.00;37.20;;;;;;10905579;32;20396;-71
2022/08/03 14:49:10;;;;;;;1.05;0.60;;;35.10;36.70;;;;;;10905962;32;20027;-72
2022/08/03 14:55:19;;;;;;;2.90;0.62;;;35.20;35.80;;;;;;10892386;32;20102;-70
2022/08/03 15:01:45;;;;;;;1.85;0.52;;;35.20;35.80;;;;;;10905631;32;20035;-70
2022/08/03 15:07:47;;;;;;;0.40;0.37;;;35.20;35.50;;;;;;10905554;32;20031;-71
2022/08/03 15:13:49;;;;;;;0.00;0.00;;;35.20;35.00;;;;;;10905388;32;20115;-71
2022/08/03 15:19:53;;;;;;;13.82;0.77;;;35.30;34.70;;;;;;10905343;32;20355;-71
2022/08/03 15:25:55;;;;;;;0.30;0.30;;;35.30;35.00;;;;;;10904626;32;20049;-71
2022/08/03 15:31:58;;;;;;;0.40;0.35;;;35.30;34.80;;;;;;10904796;32;20011;-71
2022/08/03 15:38:01;;;;;;;1.60;0.95;;;35.40;34.60;;;;;;10904805;32;20027;-71
2022/08/03 15:44:03;;;;;;;0.30;0.30;;;35.40;34.40;;;;;;10900600;32;20041;-71
2022/08/03 15:50:05;;;;;;;3.03;0.45;;;35.50;34.00;;;;;;10904298;32;20022;-72
2022/08/03 15:56:09;;;;;;;0.28;0.20;;;35.50;33.90;;;;;;10890627;32;20024;-71
2022/08/03 16:02:14;;;;;;;0.75;0.30;;;35.60;33.90;;;;;;10890691;32;20078;-71
2022/08/03 16:08:16;;;;;;;0.82;0.30;;;35.60;33.80;;;;;;10903865;32;20042;-71
2022/08/03 16:14:19;;;;;;;2.03;0.55;;;35.70;33.50;;;;;;10903790;32;20027;-71
2022/08/03 16:20:21;;;;;;;0.30;0.30;;;35.80;33.20;;;;;;10903961;32;20324;-71
2022/08/03 16:26:23;;;;;;;0.62;0.40;;;35.80;32.90;;;;;;10889329;32;20059;-71
2022/08/03 16:32:25;;;;;;;0.80;0.70;;;35.90;32.90;;;;;;10866086;32;20042;-71
2022/08/03 16:38:28;;;;;;;1.05;0.20;;;35.80;32.40;;;;;;10869093;32;20066;-71
2022/08/03 16:44:30;;;;;;;0.73;0.40;;;35.80;32.60;;;;;;10873106;32;20348;-72
2022/08/03 16:50:34;;;;;;;0.88;0.28;;;35.80;32.80;;;;;;10872883;32;20324;-71
2022/08/03 16:56:37;;;;;;;1.52;0.70;;;35.80;33.00;;;;;;10881706;32;20031;-71
2022/08/03 17:02:41;;;;;;;0.65;0.15;;;35.70;33.00;;;;;;10872522;32;20340;-72
2022/08/03 17:08:43;;;;;;;0.20;0.20;;;35.60;33.20;;;;;;10872201;32;20046;-71
2022/08/03 17:14:45;;;;;;;0.30;0.30;;;35.50;33.40;;;;;;10868033;32;20046;-72
2022/08/03 17:20:49;;;;;;;0.10;0.10;;;35.50;33.20;;;;;;10903781;32;20054;-71
2022/08/03 17:26:52;;;;;;;0.60;0.40;;;35.60;32.90;;;;;;10881595;32;20336;-72
2022/08/03 17:32:54;;;;;;;1.20;0.60;;;35.60;32.80;;;;;;10871239;32;20388;-72
2022/08/03 17:38:57;;;;;;;0.57;0.47;;;35.80;32.70;;;;;;10871171;32;20032;-71
2022/08/03 17:44:59;;;;;;;0.65;0.30;;;36.30;32.40;;;;;;10873037;32;20020;-71
2022/08/03 17:51:16;;;;;;;0.85;0.50;;;37.40;31.70;;;;;;10885989;32;20054;-72
2022/08/03 17:57:35;;;;;;;0.93;0.40;;;38.10;31.10;;;;;;10894098;32;20406;-71
2022/08/03 18:03:49;;;;;;;0.88;0.35;;;38.70;31.00;;;;;;10907711;32;20019;-72
2022/08/03 18:09:54;;;;;;;0.52;0.30;;;38.80;31.10;;;;;;10907496;32;20422;-71
2022/08/03 18:16:01;;;;;;;0.90;0.43;;;38.60;31.70;;;;;;10907155;32;20085;-71
2022/08/03 18:22:03;;;;;;;2.85;0.77;;;37.60;32.80;;;;;;10900208;32;20458;-71
2022/08/03 18:28:07;;;;;;;0.60;0.40;;;36.30;34.40;;;;;;10903556;32;20024;-72
2022/08/03 18:34:11;;;;;;;0.35;0.35;;;35.40;35.40;;;;;;10869342;32;20042;-71
2022/08/03 18:40:15;;;;;;;0.40;0.40;;;34.80;36.20;;;;;;10869005;32;20078;-71
2022/08/03 18:46:40;;;;;;;1.20;0.70;;;34.40;36.80;;;;;;10868769;32;20023;-72
2022/08/03 18:52:49;;;;;;;0.75;0.50;;;34.10;37.30;;;;;;10868471;32;20020;-71
2022/08/03 18:59:39;;;;;;;2.40;0.82;;;33.90;37.70;;;;;;10868334;32;20024;-71
2022/08/03 19:05:48;;;;;;;0.37;0.37;;;33.70;38.10;;;;;;10854770;32;20039;-71
2022/08/03 19:11:53;;;;;;;0.95;0.85;;;33.40;38.50;;;;;;10868178;32;20007;-71
2022/08/03 19:17:57;;;;;;;1.80;0.90;;;33.30;39.00;;;;;;10867876;32;20042;-71
2022/08/03 19:24:01;;;;;;;0.95;0.75;;;33.00;39.30;;;;;;10867672;32;20058;-72
2022/08/03 19:30:07;;;;;;;1.10;0.80;;;32.90;39.70;;;;;;10867082;32;20054;-71
2022/08/03 19:36:09;;;;;;;0.65;0.57;;;32.90;40.00;;;;;;10867505;32;20011;-71
2022/08/03 19:42:16;;;;;;;3.08;0.90;;;32.80;40.40;;;;;;10867197;32;20024;-71
2022/08/03 19:48:22;;;;;;;0.60;0.50;;;32.60;40.80;;;;;;10867143;32;20042;-71
2022/08/03 19:54:30;;;;;;;1.35;0.70;;;32.40;41.10;;;;;;10867164;32;20081;-71
2022/08/03 20:00:35;;;;;;;1.02;0.50;;;32.30;41.70;;;;;;10853618;32;20023;-71
2022/08/03 20:06:51;;;;;;;1.40;0.82;;;32.30;42.50;;;;;;10866695;32;20152;-71
2022/08/03 20:12:55;;;;;;;1.42;0.95;;;32.20;42.70;;;;;;10869204;32;20024;-71
2022/08/03 20:18:57;;;;;;;1.20;0.60;;;32.10;43.40;;;;;;10874037;32;20024;-71
2022/08/03 20:25:11;;;;;;;1.87;0.88;;;32.00;44.20;;;;;;10873989;32;20396;-71
2022/08/03 20:31:13;;;;;;;0.98;0.85;;;31.90;44.80;;;;;;10901044;27;20049;-71
2022/08/03 20:37:16;;;;;;;2.30;0.80;;;31.80;44.90;;;;;;10897488;32;20028;-71
2022/08/03 20:43:19;;;;;;;2.35;1.02;;;31.80;45.00;;;;;;10910598;32;20027;-71
2022/08/03 20:49:25;;;;;;;2.30;1.20;;;31.60;45.30;;;;;;10910546;32;20024;-71
2022/08/03 20:55:28;;;;;;;1.75;1.10;;;31.60;45.70;;;;;;10910236;32;20019;-71
2022/08/03 21:01:35;;;;;;;0.90;0.70;;;31.50;46.40;;;;;;10909902;32;20031;-71
2022/08/03 21:07:42;;;;;;;1.43;1.20;;;31.30;47.00;;;;;;10909753;32;20045;-71
2022/08/03 21:13:54;;;;;;;1.62;1.10;;;31.30;47.00;;;;;;10909566;32;20038;-71
2022/08/03 21:19:57;;;;;;;0.98;0.68;;;31.20;47.40;;;;;;10909436;32;20020;-71
2022/08/03 21:26:01;;;;;;;4.18;1.37;;;31.10;47.90;;;;;;10908291;32;20421;-71
2022/08/03 21:32:06;;;;;;;4.85;1.55;;;31.10;48.30;;;;;;10908912;32;20396;-71
2022/08/03 21:38:20;;;;;;;1.33;1.05;;;31.00;48.50;;;;;;10908779;32;20012;-72
2022/08/03 21:44:22;;;;;;;2.55;1.40;;;30.90;48.70;;;;;;10908469;32;20024;-71
2022/08/03 21:50:24;;;;;;;1.42;1.15;;;30.80;49.00;;;;;;10908160;32;20059;-71
2022/08/03 21:56:49;;;;;;;2.03;1.08;;;30.80;49.50;;;;;;10908162;32;20023;-71
2022/08/03 22:02:55;;;;;;;1.20;1.00;;;30.80;49.70;;;;;;10908034;32;20011;-71
2022/08/03 22:08:57;;;;;;;1.70;1.40;;;30.70;49.80;;;;;;10907652;32;20316;-71
2022/08/03 22:15:01;;;;;;;1.77;1.48;;;30.60;50.00;;;;;;10907068;32;20024;-71
2022/08/03 22:21:05;;;;;;;1.70;1.12;;;30.40;50.00;;;;;;10907202;32;20054;-71
2022/08/03 22:33:29;;;;;;;1.85;1.48;;;30.30;50.30;;;;;;10906676;32;20061;-71
2022/08/03 22:39:32;;;;;;;1.10;0.90;;;30.20;50.50;;;;;;10906530;32;20019;-71
2022/08/03 22:45:34;;;;;;;1.65;1.23;;;30.20;50.70;;;;;;10906397;32;20513;-71
2022/08/03 22:51:36;;;;;;;2.75;1.37;;;30.20;51.30;;;;;;10906182;32;20011;-71
2022/08/03 22:57:39;;;;;;;1.65;1.15;;;30.20;51.20;;;;;;10905915;32;20020;-72
2022/08/03 23:03:45;;;;;;;1.85;1.30;;;30.00;51.20;;;;;;10905717;32;20016;-71
2022/08/03 23:09:49;;;;;;;2.35;1.30;;;29.90;51.40;;;;;;10905575;32;20049;-71
2022/08/03 23:15:55;;;;;;;1.25;0.95;;;29.80;51.50;;;;;;10905429;32;20053;-71
2022/08/03 23:21:58;;;;;;;1.62;1.40;;;29.70;51.80;;;;;;10905024;32;20027;-72
2022/08/03 23:28:02;;;;;;;2.45;1.52;;;29.50;51.90;;;;;;10904753;32;20046;-72
2022/08/03 23:41:08;;;;;;;3.58;1.67;;;29.70;51.80;;;;;;10905338;32;20046;-71
2022/08/03 23:47:11;;;;;;;2.33;1.20;;;29.60;52.00;;;;;;10904035;32;20015;-71
2022/08/03 23:53:37;;;;;;;2.92;1.95;;;29.60;52.00;;;;;;10904316;32;20024;-71
2022/08/03 23:59:50;;;;;;;1.65;1.27;;;29.50;52.20;;;;;;10904430;32;20027;-71
